Flight Track Log - Related Links

Times and Time Zones

All times are in EDT time to prevent confusion due to time zone crossing. See the N1926A flight status page for this flight to view local times or setup timezone preferences in your user account.

Time Position Orientation Groundspeed Altitude Reporting Facility
EDT Latitude Longitude Course Direction KTS MPH feet Rate Location/Type
Thu 04:09:33 PM 32.4333 -96.9000 73° East 171 197 1,800  Level Dallas / Fort Worth TRACON
Thu 04:10:45 PM 32.4500 -96.8333 73° East 216 249 3,000 957 Climbing Dallas / Fort Worth TRACON
Thu 04:11:51 PM 32.5000 -96.7667 48° Northeast 230 265 4,000 476 Climbing Dallas / Fort Worth TRACON
Thu 04:12:51 PM 32.5333 -96.7000 59° Northeast 249 287 4,000  Level Dallas / Fort Worth TRACON
Thu 04:13:51 PM 32.6000 -96.6500 32° Northeast 257 296 4,000  Level Dallas / Fort Worth TRACON
Thu 04:14:45 PM 32.6333 -96.6000 52° Northeast 256 295 4,000  Level Dallas / Fort Worth TRACON
Thu 04:16:00 PM 32.7072 -96.5319 38° Northeast 276 318 4,000 311 Level Fort Worth Center
Thu 04:17:00 PM 32.7528 -96.4797 44° Northeast 269 310 4,700 1,400 Climbing Fort Worth Center
Thu 04:18:00 PM 32.7983 -96.4247 45° Northeast 225 259 6,800 1,800 Climbing Fort Worth Center
Thu 04:19:00 PM 32.8353 -96.3775 47° Northeast 209 241 8,300 1,600 Climbing Fort Worth Center
Thu 04:20:00 PM 32.8767 -96.3175 51° Northeast 209 241 10,000 850 Climbing Fort Worth Center
Thu 04:21:00 PM 32.8739 -96.2458 93° East 214 246 10,000  Level Fort Worth Center
Thu 04:22:00 PM 32.8708 -96.1519 92° East 242 278 10,000 700 Level Fort Worth Center
Thu 04:23:00 PM 32.8700 -96.0753 91° East 260 299 11,400 1,650 Climbing Fort Worth Center
Thu 04:24:00 PM 32.8714 -95.9986 89° East 222 255 13,300 1,700 Climbing Fort Worth Center
Thu 04:25:00 PM 32.8725 -95.9244 89° East 216 249 14,800 900 Climbing Fort Worth Center
Thu 04:26:00 PM 32.8736 -95.8428 89° East 231 266 15,100 800 Climbing Fort Worth Center
Thu 04:27:00 PM 32.8747 -95.7586 89° East 247 284 16,400 1,150 Climbing Fort Worth Center
Thu 04:28:00 PM 32.8800 -95.6794 85° East 247 284 17,400 1,050 Climbing Fort Worth Center
Thu 04:29:00 PM 32.8831 -95.6050 87° East 247 284 18,500 1,150 Climbing Fort Worth Center
Thu 04:30:00 PM 32.8839 -95.5233 89° East 247 284 19,700 3,250 Climbing Fort Worth Center
Thu 04:31:00 PM 32.8786 -95.4469 95° East 242 278 25,000 1,200 Climbing Fort Worth Center
Thu 04:32:00 PM 32.8794 -95.3703 89° East 232 267 22,100 -900 Descending Fort Worth Center
Thu 04:33:00 PM 32.8761 -95.2961 93° East 227 261 23,200 1,000 Climbing Fort Worth Center
Thu 04:34:00 PM 32.8769 -95.2144 89° East 233 268 24,100 900 Climbing Fort Worth Center
Thu 04:35:00 PM 32.8775 -95.1378 89° East 233 268 25,000 450 Climbing Fort Worth Center
Thu 04:36:00 PM 32.8761 -95.0536 91° East 239 275 25,000  Level Fort Worth Center
Thu 04:37:00 PM 32.8764 -94.9597 90° East 254 292 25,000  Level Fort Worth Center
Thu 04:38:00 PM 32.8786 -94.8656 88° East 276 318 25,000  Level Fort Worth Center
Thu 04:39:00 PM 32.8786 -94.7717 90° East 282 325 25,000  Level Fort Worth Center
Thu 04:40:00 PM 32.8808 -94.6725 88° East 282 325 25,000  Level Fort Worth Center
Thu 04:41:00 PM 32.8786 -94.5761 92° East 287 330 25,000  Level Fort Worth Center
Thu 04:42:00 PM 32.8786 -94.4797 90° East 287 330 25,000  Level Fort Worth Center
Thu 04:43:00 PM 32.8764 -94.3833 92° East 287 330 25,000  Level Fort Worth Center
Thu 04:44:00 PM 32.8739 -94.2844 92° East 287 330 25,000  Level Fort Worth Center
Thu 04:45:00 PM 32.8736 -94.1881 90° East 287 330 25,000  Level Fort Worth Center
Thu 04:46:00 PM 32.8731 -94.0892 90° East 294 338 25,000  Level Fort Worth Center
Thu 04:47:00 PM 32.8725 -93.9903 90° East 294 338 25,000  Level Fort Worth Center
Thu 04:48:00 PM 32.8697 -93.8939 92° East 289 333 25,000  Level Fort Worth Center
Thu 04:49:00 PM 32.8692 -93.7950 90° East 289 333 25,000  Level Fort Worth Center
Thu 04:50:00 PM 32.8639 -93.6864 93° East 289 333 25,000  Level Fort Worth Center
Thu 04:51:00 PM 32.8628 -93.5875 91° East 289 333 25,000  Level Fort Worth Center
Thu 04:52:00 PM 32.8642 -93.4911 89° East 289 333 25,000  Level Fort Worth Center
Thu 04:53:00 PM 32.8653 -93.3944 89° East 289 333 25,000  Level Fort Worth Center
Thu 04:54:00 PM 32.8642 -93.2931 91° East 289 333 25,000  Level Fort Worth Center
Thu 04:55:00 PM 32.8621 -93.2049 92° East  Level FlightAware Approximate
Thu 04:56:00 PM 32.8617 -93.0981 92° East 289 333 25,000  Level Fort Worth Center
Thu 04:57:00 PM 32.8625 -93.0014 89° East 289 333 25,000  Level Fort Worth Center
Thu 04:58:00 PM 32.8589 -92.9003 92° East 289 333 25,000  Level Fort Worth Center
Thu 04:59:00 PM 32.8533 -92.8042 94° East 289 333 25,000  Level Fort Worth Center
Thu 05:00:00 PM 32.8536 -92.7028 90° East 289 333 25,000  Level Fort Worth Center
Thu 05:01:00 PM 32.8542 -92.6039 90° East 289 333 25,000  Level Fort Worth Center
Thu 05:02:00 PM 32.8503 -92.5050 93° East 289 333 25,000  Level Fort Worth Center
Thu 05:03:00 PM 32.8467 -92.4089 93° East 289 333 25,000  Level Fort Worth Center
Thu 05:04:52 PM 32.8417 -92.2292 92° East 296 341 25,000  Level Memphis Center
Thu 05:05:52 PM 32.8411 -92.1325 90° East 291 335 25,000  Level Memphis Center
Thu 05:06:52 PM 32.8381 -92.0361 92° East 291 335 25,000  Level Memphis Center
Thu 05:07:52 PM 32.8289 -91.9419 97° East 298 343 25,000  Level Memphis Center
Thu 05:08:52 PM 32.8281 -91.8431 91° East 298 343 25,000  Level Memphis Center
Thu 05:09:52 PM 32.8250 -91.7417 92° East 298 343 25,000  Level Memphis Center
Thu 05:10:52 PM 32.8219 -91.6453 92° East 298 343 25,000  Level Memphis Center
Thu 05:11:52 PM 32.8189 -91.5339 92° East 298 343 25,000  Level Memphis Center
Thu 05:12:52 PM 32.8156 -91.4375 92° East 298 343 25,000  Level Memphis Center
Thu 05:13:52 PM 32.8122 -91.3411 92° East 293 337 25,000  Level Memphis Center
Thu 05:14:52 PM 32.8108 -91.2397 91° East 293 337 25,000  Level Memphis Center
Thu 05:15:52 PM 32.8072 -91.1408 92° East 293 337 25,000  Level Memphis Center
Thu 05:16:52 PM 32.8036 -91.0394 92° East 293 337 25,000  Level Memphis Center
Thu 05:17:52 PM 32.8022 -90.9431 91° East 293 337 25,000  Level Memphis Center
Thu 05:18:52 PM 32.7964 -90.8467 94° East 293 337 25,000  Level Memphis Center
Thu 05:19:52 PM 32.7944 -90.7453 91° East 293 337 25,000  Level Memphis Center
Thu 05:20:52 PM 32.7906 -90.6489 93° East 293 337 25,000  Level Memphis Center
Thu 05:21:52 PM 32.7844 -90.5500 94° East 293 337 25,000  Level Memphis Center
Thu 05:22:52 PM 32.7806 -90.4536 93° East 293 337 25,000  Level Memphis Center
Thu 05:23:52 PM 32.7783 -90.3572 92° East 288 331 25,000  Level Memphis Center
Thu 05:24:52 PM 32.7700 -90.2608 96° East 288 331 25,000  Level Memphis Center
Thu 05:25:52 PM 32.7636 -90.1744 95° East 288 331 25,000  Level Memphis Center
Thu 05:26:52 PM 32.7592 -90.0806 93° East 288 331 25,000  Level Memphis Center
Thu 05:27:52 PM 32.7569 -89.9817 92° East 288 331 25,000  Level Memphis Center
Thu 05:28:52 PM 32.7567 -89.8856 90° East 288 331 25,000  Level Memphis Center
Thu 05:29:52 PM 32.7542 -89.7917 92° East 288 331 25,000  Level Memphis Center
Thu 05:30:52 PM 32.7517 -89.6978 92° East 288 331 25,000  Level Memphis Center
Thu 05:31:52 PM 32.7469 -89.6014 93° East 288 331 25,000  Level Memphis Center
Thu 05:32:52 PM 32.7400 -89.4953 94° East 293 337 25,000  Level Memphis Center
Thu 05:33:52 PM 32.7350 -89.3992 94° East 293 337 25,000  Level Memphis Center
Thu 05:34:52 PM 32.7322 -89.3028 92° East 293 337 25,000  Level Memphis Center
Thu 05:35:52 PM 32.7272 -89.2067 94° East 293 337 25,000  Level Memphis Center
Thu 05:36:52 PM 32.7200 -89.1103 95° East 293 337 25,000  Level Memphis Center
Thu 05:37:52 PM 32.7169 -89.0142 92° East 293 337 25,000  Level Memphis Center
Thu 05:38:52 PM 32.7219 -88.9203 86° East 287 330 25,000  Level Memphis Center
Thu 05:39:52 PM 32.7356 -88.8261 80° East 287 330 25,000  Level Memphis Center
Thu 05:40:52 PM 32.7322 -88.7297 92° East 287 330 25,000  Level Memphis Center
Thu 05:41:52 PM 32.7206 -88.6336 98° East 287 330 25,000  Level Memphis Center
Thu 05:43:45 PM 32.6964 -88.4569 99° East 287 330 25,000  Level Atlanta Center
Thu 05:44:45 PM 32.6853 -88.3600 98° East 292 336 25,000  Level Atlanta Center
Thu 05:45:45 PM 32.6778 -88.2733 96° East 292 336 25,000  Level Atlanta Center
Thu 05:46:45 PM 32.6728 -88.1794 94° East 292 336 25,000  Level Atlanta Center
Thu 05:47:45 PM 32.6678 -88.0806 93° East 292 336 25,000  Level Atlanta Center
Thu 05:48:45 PM 32.6631 -87.9644 93° East 308 354 25,000  Level Atlanta Center
Thu 05:49:45 PM 32.6558 -87.8653 95° East 308 354 25,000  Level Atlanta Center
Thu 05:50:45 PM 32.6525 -87.7689 92° East 303 349 25,000  Level Atlanta Center
Thu 05:51:45 PM 32.6450 -87.6725 95° East 297 342 25,000  Level Atlanta Center
Thu 05:52:45 PM 32.6394 -87.5761 94° East 292 336 25,000 -300 Level Atlanta Center
Thu 05:53:45 PM 32.6319 -87.4722 95° East 292 336 24,400 -500 Descending Atlanta Center
Thu 05:54:45 PM 32.6242 -87.3708 95° East 297 342 24,000 -300 Descending Atlanta Center
Thu 05:55:45 PM 32.6164 -87.2717 95° East 302 348 23,800 -950 Descending Atlanta Center
Thu 05:56:45 PM 32.6086 -87.1656 95° East 312 359 22,100 -1,650 Descending Atlanta Center
Thu 05:57:45 PM 32.6031 -87.0592 94° East 317 365 20,500 1,450 Descending Atlanta Center
Thu 05:58:45 PM 32.5844 -86.9575 102° East 317 365 25,000 2,250 Climbing Atlanta Center
Thu 05:59:45 PM 32.5578 -86.8531 107° East 317 365 25,000  Level Atlanta Center
Thu 06:00:45 PM 32.5539 -86.7494 93° East 317 365 25,000  Level Atlanta Center
Thu 06:01:45 PM 32.5497 -86.6508 93° East 311 358 25,000  Level Atlanta Center
Thu 06:02:45 PM 32.5475 -86.5547 92° East 306 352 25,000  Level Atlanta Center
Thu 06:03:45 PM 32.5453 -86.4611 92° East 295 339 25,000  Level Atlanta Center
Thu 06:04:45 PM 32.5425 -86.3797 92° East 274 315 25,000  Level Atlanta Center
Thu 06:05:45 PM 32.5378 -86.3006 94° East 249 287 25,000  Level Atlanta Center
Thu 06:06:45 PM 32.5328 -86.2267 95° East 244 281 25,000  Level Atlanta Center
Thu 06:07:45 PM 32.5281 -86.1478 94° East 244 281 25,000  Level Atlanta Center
Thu 06:08:45 PM 32.5253 -86.0664 92° East 244 281 25,000  Level Atlanta Center
Thu 06:09:45 PM 32.5217 -86.0194 95° East 244 281 25,000  Level Atlanta Center
Thu 06:11:00 PM 32.5000 -85.9220 90° East  Level FlightAware Approximate
Thu 06:18:00 PM 32.5000 -85.8667 North  Level FlightAware Approximate
Thu 06:19:00 PM 32.5149 -85.8762 North  Level Estimated
Thu 06:20:00 PM 32.5149 -85.8762 North  Level Estimated
Thu 06:21:00 PM 32.5149 -85.8762 North  Level Estimated

Login

Don't have an account? Register now (free) for customized features, flight alerts, and more!